sensor_id;sensor_type;location;lat;lon;timestamp;temperature;humidity
22360;DHT22;11347;52.030;4.690;2022-11-20T00:00:57;12.20;43.40
22360;DHT22;11347;52.030;4.690;2022-11-20T00:03:23;12.20;43.30
22360;DHT22;11347;52.030;4.690;2022-11-20T00:05:48;12.20;43.40
22360;DHT22;11347;52.030;4.690;2022-11-20T00:08:14;12.20;43.40
22360;DHT22;11347;52.030;4.690;2022-11-20T00:10:40;12.20;43.30
22360;DHT22;11347;52.030;4.690;2022-11-20T00:13:07;12.20;43.30
22360;DHT22;11347;52.030;4.690;2022-11-20T00:15:33;12.20;43.30
22360;DHT22;11347;52.030;4.690;2022-11-20T00:17:58;12.20;43.40
22360;DHT22;11347;52.030;4.690;2022-11-20T00:20:24;12.20;43.40
22360;DHT22;11347;52.030;4.690;2022-11-20T00:22:50;12.10;43.20
22360;DHT22;11347;52.030;4.690;2022-11-20T00:25:16;12.20;43.40
22360;DHT22;11347;52.030;4.690;2022-11-20T00:27:42;12.20;43.30
22360;DHT22;11347;52.030;4.690;2022-11-20T00:30:08;12.20;43.30
22360;DHT22;11347;52.030;4.690;2022-11-20T00:32:33;12.20;43.30
22360;DHT22;11347;52.030;4.690;2022-11-20T00:34:59;12.20;43.30
22360;DHT22;11347;52.030;4.690;2022-11-20T00:37:25;12.20;43.30
22360;DHT22;11347;52.030;4.690;2022-11-20T00:39:50;12.20;43.40
22360;DHT22;11347;52.030;4.690;2022-11-20T00:42:16;12.20;43.40
22360;DHT22;11347;52.030;4.690;2022-11-20T00:44:41;12.20;43.30
22360;DHT22;11347;52.030;4.690;2022-11-20T00:47:07;12.20;43.30
22360;DHT22;11347;52.030;4.690;2022-11-20T00:49:32;12.20;43.30
22360;DHT22;11347;52.030;4.690;2022-11-20T00:51:58;12.20;43.30
22360;DHT22;11347;52.030;4.690;2022-11-20T00:54:23;12.20;43.30
22360;DHT22;11347;52.030;4.690;2022-11-20T00:56:49;12.10;43.20
22360;DHT22;11347;52.030;4.690;2022-11-20T00:59:14;12.10;43.30
22360;DHT22;11347;52.030;4.690;2022-11-20T01:01:40;12.10;43.20
22360;DHT22;11347;52.030;4.690;2022-11-20T01:04:06;12.10;43.20
22360;DHT22;11347;52.030;4.690;2022-11-20T01:06:35;12.10;43.20
22360;DHT22;11347;52.030;4.690;2022-11-20T01:09:04;12.10;43.20
22360;DHT22;11347;52.030;4.690;2022-11-20T01:11:36;12.10;43.20
22360;DHT22;11347;52.030;4.690;2022-11-20T01:14:04;12.10;43.20
22360;DHT22;11347;52.030;4.690;2022-11-20T01:16:35;12.10;43.10
22360;DHT22;11347;52.030;4.690;2022-11-20T01:19:04;12.10;43.20
22360;DHT22;11347;52.030;4.690;2022-11-20T01:21:33;12.10;43.10
22360;DHT22;11347;52.030;4.690;2022-11-20T01:24:00;12.10;43.10
22360;DHT22;11347;52.030;4.690;2022-11-20T01:26:28;12.10;43.10
22360;DHT22;11347;52.030;4.690;2022-11-20T01:28:55;12.10;43.10
22360;DHT22;11347;52.030;4.690;2022-11-20T01:31:26;12.10;43.20
22360;DHT22;11347;52.030;4.690;2022-11-20T01:33:55;12.10;43.30
22360;DHT22;11347;52.030;4.690;2022-11-20T01:36:22;12.10;43.20
22360;DHT22;11347;52.030;4.690;2022-11-20T01:38:51;12.10;43.20
22360;DHT22;11347;52.030;4.690;2022-11-20T01:41:17;12.10;43.10
22360;DHT22;11347;52.030;4.690;2022-11-20T01:44:03;12.10;43.40
22360;DHT22;11347;52.030;4.690;2022-11-20T01:46:30;12.10;43.60
22360;DHT22;11347;52.030;4.690;2022-11-20T01:51:45;12.20;44.20
22360;DHT22;11347;52.030;4.690;2022-11-20T01:54:21;12.20;44.50
22360;DHT22;11347;52.030;4.690;2022-11-20T01:56:51;12.20;44.50
22360;DHT22;11347;52.030;4.690;2022-11-20T01:59:19;12.20;44.60
22360;DHT22;11347;52.030;4.690;2022-11-20T02:01:45;12.20;44.70
22360;DHT22;11347;52.030;4.690;2022-11-20T02:04:11;12.20;44.80
22360;DHT22;11347;52.030;4.690;2022-11-20T02:06:52;12.20;44.90
22360;DHT22;11347;52.030;4.690;2022-11-20T02:09:21;12.30;45.10
22360;DHT22;11347;52.030;4.690;2022-11-20T02:11:47;12.30;45.10
22360;DHT22;11347;52.030;4.690;2022-11-20T02:14:13;12.30;45.20
22360;DHT22;11347;52.030;4.690;2022-11-20T02:16:44;12.30;45.20
22360;DHT22;11347;52.030;4.690;2022-11-20T02:19:26;12.30;45.30
22360;DHT22;11347;52.030;4.690;2022-11-20T02:24:31;12.30;45.30
22360;DHT22;11347;52.030;4.690;2022-11-20T02:27:01;12.20;45.10
22360;DHT22;11347;52.030;4.690;2022-11-20T02:29:51;12.30;45.20
22360;DHT22;11347;52.030;4.690;2022-11-20T02:32:32;12.30;45.20
22360;DHT22;11347;52.030;4.690;2022-11-20T02:35:05;12.30;45.10
22360;DHT22;11347;52.030;4.690;2022-11-20T02:37:35;12.20;45.10
22360;DHT22;11347;52.030;4.690;2022-11-20T02:40:01;12.30;45.10
22360;DHT22;11347;52.030;4.690;2022-11-20T02:42:27;12.20;45.00
22360;DHT22;11347;52.030;4.690;2022-11-20T02:44:52;12.20;44.90
22360;DHT22;11347;52.030;4.690;2022-11-20T02:47:18;12.30;45.10
22360;DHT22;11347;52.030;4.690;2022-11-20T02:49:43;12.20;44.90
22360;DHT22;11347;52.030;4.690;2022-11-20T02:52:09;12.20;44.80
22360;DHT22;11347;52.030;4.690;2022-11-20T02:54:34;12.20;44.80
22360;DHT22;11347;52.030;4.690;2022-11-20T02:57:00;12.20;44.80
22360;DHT22;11347;52.030;4.690;2022-11-20T02:59:26;12.20;45.00
22360;DHT22;11347;52.030;4.690;2022-11-20T03:01:51;12.20;45.10
22360;DHT22;11347;52.030;4.690;2022-11-20T03:04:17;12.20;45.10
22360;DHT22;11347;52.030;4.690;2022-11-20T03:06:42;12.20;45.20
22360;DHT22;11347;52.030;4.690;2022-11-20T03:09:08;12.20;45.10
22360;DHT22;11347;52.030;4.690;2022-11-20T03:11:33;12.20;45.10
22360;DHT22;11347;52.030;4.690;2022-11-20T03:14:03;12.20;45.10
22360;DHT22;11347;52.030;4.690;2022-11-20T03:16:30;12.20;45.10
22360;DHT22;11347;52.030;4.690;2022-11-20T03:18:55;12.20;45.00
22360;DHT22;11347;52.030;4.690;2022-11-20T03:21:21;12.20;45.10
22360;DHT22;11347;52.030;4.690;2022-11-20T03:23:47;12.20;45.10
22360;DHT22;11347;52.030;4.690;2022-11-20T03:26:24;12.20;45.10
22360;DHT22;11347;52.030;4.690;2022-11-20T03:28:52;12.20;45.00
22360;DHT22;11347;52.030;4.690;2022-11-20T03:31:20;12.20;44.90
22360;DHT22;11347;52.030;4.690;2022-11-20T03:33:46;12.20;44.90
22360;DHT22;11347;52.030;4.690;2022-11-20T03:36:14;12.20;44.90
22360;DHT22;11347;52.030;4.690;2022-11-20T03:38:40;12.20;44.80
22360;DHT22;11347;52.030;4.690;2022-11-20T03:41:11;12.20;44.90
22360;DHT22;11347;52.030;4.690;2022-11-20T03:43:37;12.10;44.70
22360;DHT22;11347;52.030;4.690;2022-11-20T03:46:04;12.10;44.70
22360;DHT22;11347;52.030;4.690;2022-11-20T03:48:30;12.10;44.80
22360;DHT22;11347;52.030;4.690;2022-11-20T03:51:14;12.10;44.70
22360;DHT22;11347;52.030;4.690;2022-11-20T03:53:42;12.10;44.80
22360;DHT22;11347;52.030;4.690;2022-11-20T03:56:08;12.10;44.80
22360;DHT22;11347;52.030;4.690;2022-11-20T03:58:35;12.10;44.70
22360;DHT22;11347;52.030;4.690;2022-11-20T04:01:06;12.10;44.60
22360;DHT22;11347;52.030;4.690;2022-11-20T04:03:32;12.10;44.70
22360;DHT22;11347;52.030;4.690;2022-11-20T04:06:28;12.10;44.60
22360;DHT22;11347;52.030;4.690;2022-11-20T04:08:55;12.10;44.60
22360;DHT22;11347;52.030;4.690;2022-11-20T04:11:26;12.10;44.60
22360;DHT22;11347;52.030;4.690;2022-11-20T04:13:55;12.10;44.50
22360;DHT22;11347;52.030;4.690;2022-11-20T04:16:22;12.10;44.60
22360;DHT22;11347;52.030;4.690;2022-11-20T04:18:55;12.10;44.60
22360;DHT22;11347;52.030;4.690;2022-11-20T04:21:21;12.00;44.50
22360;DHT22;11347;52.030;4.690;2022-11-20T04:23:47;12.00;44.50
22360;DHT22;11347;52.030;4.690;2022-11-20T04:26:12;12.00;44.40
22360;DHT22;11347;52.030;4.690;2022-11-20T04:28:39;12.00;44.40
22360;DHT22;11347;52.030;4.690;2022-11-20T04:31:06;12.00;44.50
22360;DHT22;11347;52.030;4.690;2022-11-20T04:33:32;12.00;44.50
22360;DHT22;11347;52.030;4.690;2022-11-20T04:36:12;12.00;44.60
22360;DHT22;11347;52.030;4.690;2022-11-20T04:38:38;12.00;44.50
22360;DHT22;11347;52.030;4.690;2022-11-20T04:41:05;12.00;44.60
22360;DHT22;11347;52.030;4.690;2022-11-20T04:43:32;12.00;44.50
22360;DHT22;11347;52.030;4.690;2022-11-20T04:45:59;12.00;44.50
22360;DHT22;11347;52.030;4.690;2022-11-20T04:48:26;12.00;44.50
22360;DHT22;11347;52.030;4.690;2022-11-20T04:50:52;12.00;44.50
22360;DHT22;11347;52.030;4.690;2022-11-20T04:53:18;12.00;44.50
22360;DHT22;11347;52.030;4.690;2022-11-20T04:55:44;12.00;44.40
22360;DHT22;11347;52.030;4.690;2022-11-20T04:58:11;12.00;44.40
22360;DHT22;11347;52.030;4.690;2022-11-20T05:00:37;12.00;44.40
22360;DHT22;11347;52.030;4.690;2022-11-20T05:03:02;12.00;44.30
22360;DHT22;11347;52.030;4.690;2022-11-20T05:05:28;12.00;44.30
22360;DHT22;11347;52.030;4.690;2022-11-20T05:07:56;12.00;44.30
22360;DHT22;11347;52.030;4.690;2022-11-20T05:10:23;12.00;44.30
22360;DHT22;11347;52.030;4.690;2022-11-20T05:12:49;12.00;44.30
22360;DHT22;11347;52.030;4.690;2022-11-20T05:15:14;12.00;44.30
22360;DHT22;11347;52.030;4.690;2022-11-20T05:17:40;11.90;44.10
22360;DHT22;11347;52.030;4.690;2022-11-20T05:20:06;11.90;44.20
22360;DHT22;11347;52.030;4.690;2022-11-20T05:22:32;11.90;44.10
22360;DHT22;11347;52.030;4.690;2022-11-20T05:24:57;11.90;44.30
22360;DHT22;11347;52.030;4.690;2022-11-20T05:27:23;11.90;44.20
22360;DHT22;11347;52.030;4.690;2022-11-20T05:29:48;11.90;44.10
22360;DHT22;11347;52.030;4.690;2022-11-20T05:32:14;11.90;44.10
22360;DHT22;11347;52.030;4.690;2022-11-20T05:34:39;11.90;44.10
22360;DHT22;11347;52.030;4.690;2022-11-20T05:37:05;11.90;44.00
22360;DHT22;11347;52.030;4.690;2022-11-20T05:39:31;11.90;44.00
22360;DHT22;11347;52.030;4.690;2022-11-20T05:41:56;11.90;44.00
22360;DHT22;11347;52.030;4.690;2022-11-20T05:44:40;11.90;43.90
22360;DHT22;11347;52.030;4.690;2022-11-20T05:47:06;11.90;43.90
22360;DHT22;11347;52.030;4.690;2022-11-20T05:49:32;11.90;43.90
22360;DHT22;11347;52.030;4.690;2022-11-20T05:51:57;11.90;44.90
22360;DHT22;11347;52.030;4.690;2022-11-20T05:54:23;11.90;44.30
22360;DHT22;11347;52.030;4.690;2022-11-20T05:56:49;11.90;44.20
22360;DHT22;11347;52.030;4.690;2022-11-20T05:59:14;11.90;44.80
22360;DHT22;11347;52.030;4.690;2022-11-20T06:01:40;11.90;44.30
22360;DHT22;11347;52.030;4.690;2022-11-20T06:04:05;11.90;44.00
22360;DHT22;11347;52.030;4.690;2022-11-20T06:06:31;11.90;44.00
22360;DHT22;11347;52.030;4.690;2022-11-20T06:08:56;11.90;44.00
22360;DHT22;11347;52.030;4.690;2022-11-20T06:11:24;11.80;43.70
22360;DHT22;11347;52.030;4.690;2022-11-20T06:13:50;11.80;43.80
22360;DHT22;11347;52.030;4.690;2022-11-20T06:16:17;11.80;43.80
22360;DHT22;11347;52.030;4.690;2022-11-20T06:18:44;11.90;43.90
22360;DHT22;11347;52.030;4.690;2022-11-20T06:23:37;11.80;43.60
22360;DHT22;11347;52.030;4.690;2022-11-20T06:26:07;11.90;43.70
22360;DHT22;11347;52.030;4.690;2022-11-20T06:28:33;11.80;43.60
22360;DHT22;11347;52.030;4.690;2022-11-20T06:30:59;11.80;43.60
22360;DHT22;11347;52.030;4.690;2022-11-20T06:33:24;11.80;43.70
22360;DHT22;11347;52.030;4.690;2022-11-20T06:35:50;11.80;43.70
22360;DHT22;11347;52.030;4.690;2022-11-20T06:38:16;11.80;43.50
22360;DHT22;11347;52.030;4.690;2022-11-20T06:40:42;11.80;43.70
22360;DHT22;11347;52.030;4.690;2022-11-20T06:43:09;11.80;43.80
22360;DHT22;11347;52.030;4.690;2022-11-20T06:45:36;11.80;43.70
22360;DHT22;11347;52.030;4.690;2022-11-20T06:48:02;11.80;43.60
22360;DHT22;11347;52.030;4.690;2022-11-20T06:50:27;11.80;43.60
22360;DHT22;11347;52.030;4.690;2022-11-20T06:52:53;11.80;43.60
22360;DHT22;11347;52.030;4.690;2022-11-20T06:55:18;11.80;43.60
22360;DHT22;11347;52.030;4.690;2022-11-20T06:57:44;11.80;43.60
22360;DHT22;11347;52.030;4.690;2022-11-20T07:00:10;11.80;43.60
22360;DHT22;11347;52.030;4.690;2022-11-20T07:02:36;11.80;43.60
22360;DHT22;11347;52.030;4.690;2022-11-20T07:05:01;11.80;43.60
22360;DHT22;11347;52.030;4.690;2022-11-20T07:07:27;11.80;43.70
22360;DHT22;11347;52.030;4.690;2022-11-20T07:09:53;11.80;43.70
22360;DHT22;11347;52.030;4.690;2022-11-20T07:12:18;11.80;43.60
22360;DHT22;11347;52.030;4.690;2022-11-20T07:14:44;11.80;43.60
22360;DHT22;11347;52.030;4.690;2022-11-20T07:17:09;11.80;43.70
22360;DHT22;11347;52.030;4.690;2022-11-20T07:19:35;11.80;43.60
22360;DHT22;11347;52.030;4.690;2022-11-20T07:22:00;11.80;43.60
22360;DHT22;11347;52.030;4.690;2022-11-20T07:24:26;11.80;43.60
22360;DHT22;11347;52.030;4.690;2022-11-20T07:26:51;11.80;43.60
22360;DHT22;11347;52.030;4.690;2022-11-20T07:29:17;11.80;43.50
22360;DHT22;11347;52.030;4.690;2022-11-20T07:31:43;11.80;43.50
22360;DHT22;11347;52.030;4.690;2022-11-20T07:34:09;11.80;43.50
22360;DHT22;11347;52.030;4.690;2022-11-20T07:36:34;11.80;44.10
22360;DHT22;11347;52.030;4.690;2022-11-20T07:39:00;11.80;43.50
22360;DHT22;11347;52.030;4.690;2022-11-20T07:41:25;11.80;43.40
22360;DHT22;11347;52.030;4.690;2022-11-20T07:43:51;11.80;43.30
22360;DHT22;11347;52.030;4.690;2022-11-20T07:46:17;11.80;43.50
22360;DHT22;11347;52.030;4.690;2022-11-20T07:48:42;11.80;43.50
22360;DHT22;11347;52.030;4.690;2022-11-20T07:51:08;11.80;43.50
22360;DHT22;11347;52.030;4.690;2022-11-20T07:53:33;11.80;43.60
22360;DHT22;11347;52.030;4.690;2022-11-20T07:56:02;11.80;43.60
22360;DHT22;11347;52.030;4.690;2022-11-20T07:58:32;11.80;43.60
22360;DHT22;11347;52.030;4.690;2022-11-20T08:01:06;11.80;43.60
22360;DHT22;11347;52.030;4.690;2022-11-20T08:03:33;11.80;43.50
22360;DHT22;11347;52.030;4.690;2022-11-20T08:06:00;11.80;43.50
22360;DHT22;11347;52.030;4.690;2022-11-20T08:08:28;11.80;43.60
22360;DHT22;11347;52.030;4.690;2022-11-20T08:10:56;11.80;43.70
22360;DHT22;11347;52.030;4.690;2022-11-20T08:13:41;11.80;43.70
22360;DHT22;11347;52.030;4.690;2022-11-20T08:16:40;11.80;43.50
22360;DHT22;11347;52.030;4.690;2022-11-20T08:19:06;11.80;43.50
22360;DHT22;11347;52.030;4.690;2022-11-20T08:21:32;11.80;43.50
22360;DHT22;11347;52.030;4.690;2022-11-20T08:23:58;11.80;43.50
22360;DHT22;11347;52.030;4.690;2022-11-20T08:26:24;11.90;43.60
22360;DHT22;11347;52.030;4.690;2022-11-20T08:28:54;11.90;43.60
22360;DHT22;11347;52.030;4.690;2022-11-20T08:31:21;11.90;43.70
22360;DHT22;11347;52.030;4.690;2022-11-20T08:33:47;11.90;43.90
22360;DHT22;11347;52.030;4.690;2022-11-20T08:36:12;11.90;43.90
22360;DHT22;11347;52.030;4.690;2022-11-20T08:38:38;11.90;44.40
22360;DHT22;11347;52.030;4.690;2022-11-20T08:41:04;11.90;44.40
22360;DHT22;11347;52.030;4.690;2022-11-20T08:43:50;12.00;44.20
22360;DHT22;11347;52.030;4.690;2022-11-20T08:46:16;12.00;43.80
22360;DHT22;11347;52.030;4.690;2022-11-20T08:48:42;12.00;43.60
22360;DHT22;11347;52.030;4.690;2022-11-20T08:51:07;12.00;43.40
22360;DHT22;11347;52.030;4.690;2022-11-20T08:53:33;12.00;43.20
22360;DHT22;11347;52.030;4.690;2022-11-20T08:55:59;12.00;43.10
22360;DHT22;11347;52.030;4.690;2022-11-20T08:58:25;12.00;42.90
22360;DHT22;11347;52.030;4.690;2022-11-20T09:00:51;12.00;42.80
22360;DHT22;11347;52.030;4.690;2022-11-20T09:03:17;12.00;42.70
22360;DHT22;11347;52.030;4.690;2022-11-20T09:05:42;12.00;42.60
22360;DHT22;11347;52.030;4.690;2022-11-20T09:08:11;12.00;42.50
22360;DHT22;11347;52.030;4.690;2022-11-20T09:10:36;12.00;42.50
22360;DHT22;11347;52.030;4.690;2022-11-20T09:13:05;12.00;42.40
22360;DHT22;11347;52.030;4.690;2022-11-20T09:15:30;12.00;42.40
22360;DHT22;11347;52.030;4.690;2022-11-20T09:18:00;12.00;42.30
22360;DHT22;11347;52.030;4.690;2022-11-20T09:20:27;12.00;42.40
22360;DHT22;11347;52.030;4.690;2022-11-20T09:22:54;12.00;42.20
22360;DHT22;11347;52.030;4.690;2022-11-20T09:25:20;12.00;42.10
22360;DHT22;11347;52.030;4.690;2022-11-20T09:27:45;12.00;42.10
22360;DHT22;11347;52.030;4.690;2022-11-20T09:30:12;12.00;42.20
22360;DHT22;11347;52.030;4.690;2022-11-20T09:32:39;12.00;42.20
22360;DHT22;11347;52.030;4.690;2022-11-20T09:35:05;12.00;42.10
22360;DHT22;11347;52.030;4.690;2022-11-20T09:37:30;12.00;42.00
22360;DHT22;11347;52.030;4.690;2022-11-20T09:39:56;12.00;42.10
22360;DHT22;11347;52.030;4.690;2022-11-20T09:42:45;12.00;42.10
22360;DHT22;11347;52.030;4.690;2022-11-20T09:45:30;12.00;41.90
22360;DHT22;11347;52.030;4.690;2022-11-20T09:54:17;12.00;41.90
22360;DHT22;11347;52.030;4.690;2022-11-20T09:56:50;12.00;42.00
22360;DHT22;11347;52.030;4.690;2022-11-20T09:59:33;12.00;42.00
22360;DHT22;11347;52.030;4.690;2022-11-20T10:02:01;12.00;42.00
22360;DHT22;11347;52.030;4.690;2022-11-20T10:04:30;12.00;42.10
22360;DHT22;11347;52.030;4.690;2022-11-20T10:09:34;12.00;42.10
22360;DHT22;11347;52.030;4.690;2022-11-20T10:14:46;12.00;42.20
22360;DHT22;11347;52.030;4.690;2022-11-20T10:29:09;12.00;42.10
22360;DHT22;11347;52.030;4.690;2022-11-20T10:31:46;12.00;42.00
22360;DHT22;11347;52.030;4.690;2022-11-20T10:34:50;12.00;42.10
22360;DHT22;11347;52.030;4.690;2022-11-20T10:37:13;12.00;42.20
22360;DHT22;11347;52.030;4.690;2022-11-20T10:42:43;12.00;42.30
22360;DHT22;11347;52.030;4.690;2022-11-20T10:45:18;12.00;42.20
22360;DHT22;11347;52.030;4.690;2022-11-20T10:47:46;12.00;42.30
22360;DHT22;11347;52.030;4.690;2022-11-20T10:50:14;12.00;42.40
22360;DHT22;11347;52.030;4.690;2022-11-20T10:52:59;12.00;42.40
22360;DHT22;11347;52.030;4.690;2022-11-20T10:55:39;12.00;42.40
22360;DHT22;11347;52.030;4.690;2022-11-20T10:58:17;12.00;42.50
22360;DHT22;11347;52.030;4.690;2022-11-20T11:00:47;12.00;42.50
22360;DHT22;11347;52.030;4.690;2022-11-20T11:03:23;12.00;42.40
22360;DHT22;11347;52.030;4.690;2022-11-20T11:05:56;12.00;42.40
22360;DHT22;11347;52.030;4.690;2022-11-20T11:08:26;12.00;42.50
22360;DHT22;11347;52.030;4.690;2022-11-20T11:10:59;12.00;42.60
22360;DHT22;11347;52.030;4.690;2022-11-20T11:13:28;12.00;42.50
22360;DHT22;11347;52.030;4.690;2022-11-20T11:15:55;12.00;42.50
22360;DHT22;11347;52.030;4.690;2022-11-20T11:20:54;12.00;43.30
22360;DHT22;11347;52.030;4.690;2022-11-20T11:23:33;12.00;42.50
22360;DHT22;11347;52.030;4.690;2022-11-20T11:26:01;12.00;42.60
22360;DHT22;11347;52.030;4.690;2022-11-20T11:28:28;12.10;42.70
22360;DHT22;11347;52.030;4.690;2022-11-20T11:30:54;12.10;42.60
22360;DHT22;11347;52.030;4.690;2022-11-20T11:33:28;12.00;42.50
22360;DHT22;11347;52.030;4.690;2022-11-20T11:35:59;12.10;42.70
22360;DHT22;11347;52.030;4.690;2022-11-20T11:38:35;12.00;42.60
22360;DHT22;11347;52.030;4.690;2022-11-20T11:41:02;12.10;42.70
22360;DHT22;11347;52.030;4.690;2022-11-20T11:43:30;12.10;42.80
22360;DHT22;11347;52.030;4.690;2022-11-20T11:46:31;12.10;42.90
22360;DHT22;11347;52.030;4.690;2022-11-20T11:54:28;12.10;42.90
22360;DHT22;11347;52.030;4.690;2022-11-20T11:56:56;12.10;43.00
22360;DHT22;11347;52.030;4.690;2022-11-20T11:59:33;12.10;43.00
22360;DHT22;11347;52.030;4.690;2022-11-20T12:02:19;12.10;43.00
22360;DHT22;11347;52.030;4.690;2022-11-20T12:05:00;12.10;43.00
22360;DHT22;11347;52.030;4.690;2022-11-20T12:07:52;12.10;43.00
22360;DHT22;11347;52.030;4.690;2022-11-20T12:10:45;12.10;43.10
22360;DHT22;11347;52.030;4.690;2022-11-20T12:13:21;12.10;43.20
22360;DHT22;11347;52.030;4.690;2022-11-20T12:15:50;12.10;43.20
22360;DHT22;11347;52.030;4.690;2022-11-20T12:18:21;12.10;43.20
22360;DHT22;11347;52.030;4.690;2022-11-20T12:29:23;12.10;43.30
22360;DHT22;11347;52.030;4.690;2022-11-20T13:00:16;12.00;43.50
22360;DHT22;11347;52.030;4.690;2022-11-20T13:03:23;12.00;43.70
22360;DHT22;11347;52.030;4.690;2022-11-20T13:06:10;12.00;43.70
22360;DHT22;11347;52.030;4.690;2022-11-20T13:08:39;12.00;43.90
22360;DHT22;11347;52.030;4.690;2022-11-20T13:16:33;12.00;44.20
22360;DHT22;11347;52.030;4.690;2022-11-20T13:19:04;12.00;44.30
22360;DHT22;11347;52.030;4.690;2022-11-20T13:21:39;12.00;44.30
22360;DHT22;11347;52.030;4.690;2022-11-20T13:27:33;12.10;44.50
22360;DHT22;11347;52.030;4.690;2022-11-20T13:29:35;12.10;44.60
22360;DHT22;11347;52.030;4.690;2022-11-20T13:32:17;12.10;44.80
22360;DHT22;11347;52.030;4.690;2022-11-20T13:35:02;12.10;44.80
22360;DHT22;11347;52.030;4.690;2022-11-20T13:37:31;12.20;44.90
22360;DHT22;11347;52.030;4.690;2022-11-20T13:42:46;12.10;44.80
22360;DHT22;11347;52.030;4.690;2022-11-20T13:45:25;12.20;44.90
22360;DHT22;11347;52.030;4.690;2022-11-20T13:47:53;12.20;45.00
22360;DHT22;11347;52.030;4.690;2022-11-20T13:50:21;12.20;45.10
22360;DHT22;11347;52.030;4.690;2022-11-20T13:53:19;12.20;45.00
22360;DHT22;11347;52.030;4.690;2022-11-20T13:56:05;12.20;45.10
22360;DHT22;11347;52.030;4.690;2022-11-20T14:01:24;12.20;45.10
22360;DHT22;11347;52.030;4.690;2022-11-20T14:03:51;12.20;45.10
22360;DHT22;11347;52.030;4.690;2022-11-20T14:06:29;12.20;45.10
22360;DHT22;11347;52.030;4.690;2022-11-20T14:08:57;12.20;45.20
22360;DHT22;11347;52.030;4.690;2022-11-20T14:11:25;12.20;45.20
22360;DHT22;11347;52.030;4.690;2022-11-20T14:14:01;12.20;45.30
22360;DHT22;11347;52.030;4.690;2022-11-20T14:16:30;12.20;45.40
22360;DHT22;11347;52.030;4.690;2022-11-20T14:18:57;12.20;45.40
22360;DHT22;11347;52.030;4.690;2022-11-20T14:21:28;12.20;45.40
22360;DHT22;11347;52.030;4.690;2022-11-20T14:24:04;12.20;45.50
22360;DHT22;11347;52.030;4.690;2022-11-20T14:26:30;12.20;45.50
22360;DHT22;11347;52.030;4.690;2022-11-20T14:28:56;12.20;45.60
22360;DHT22;11347;52.030;4.690;2022-11-20T14:31:26;12.20;45.60
22360;DHT22;11347;52.030;4.690;2022-11-20T14:33:54;12.20;45.70
22360;DHT22;11347;52.030;4.690;2022-11-20T14:36:24;12.20;45.80
22360;DHT22;11347;52.030;4.690;2022-11-20T14:38:51;12.30;45.90
22360;DHT22;11347;52.030;4.690;2022-11-20T14:41:22;12.30;45.90
22360;DHT22;11347;52.030;4.690;2022-11-20T14:43:53;12.30;45.90
22360;DHT22;11347;52.030;4.690;2022-11-20T14:46:21;12.30;46.00
22360;DHT22;11347;52.030;4.690;2022-11-20T14:48:54;12.30;46.10
22360;DHT22;11347;52.030;4.690;2022-11-20T14:54:03;12.20;46.00
22360;DHT22;11347;52.030;4.690;2022-11-20T14:56:32;12.30;46.10
22360;DHT22;11347;52.030;4.690;2022-11-20T14:58:58;12.30;46.20
22360;DHT22;11347;52.030;4.690;2022-11-20T15:01:28;12.30;46.20
22360;DHT22;11347;52.030;4.690;2022-11-20T15:04:08;12.30;46.30
22360;DHT22;11347;52.030;4.690;2022-11-20T15:06:35;12.30;46.30
22360;DHT22;11347;52.030;4.690;2022-11-20T15:09:03;12.30;46.40
22360;DHT22;11347;52.030;4.690;2022-11-20T15:11:32;12.30;46.40
22360;DHT22;11347;52.030;4.690;2022-11-20T15:14:02;12.30;46.40
22360;DHT22;11347;52.030;4.690;2022-11-20T15:16:28;12.30;46.50
22360;DHT22;11347;52.030;4.690;2022-11-20T15:18:54;12.30;46.60
22360;DHT22;11347;52.030;4.690;2022-11-20T15:21:20;12.30;46.50
22360;DHT22;11347;52.030;4.690;2022-11-20T15:23:47;12.30;46.60
22360;DHT22;11347;52.030;4.690;2022-11-20T15:26:15;12.30;46.60
22360;DHT22;11347;52.030;4.690;2022-11-20T15:28:43;12.30;46.60
22360;DHT22;11347;52.030;4.690;2022-11-20T15:31:15;12.30;46.60
22360;DHT22;11347;52.030;4.690;2022-11-20T15:33:41;12.30;46.60
22360;DHT22;11347;52.030;4.690;2022-11-20T15:36:08;12.30;46.70
22360;DHT22;11347;52.030;4.690;2022-11-20T15:38:33;12.30;46.70
22360;DHT22;11347;52.030;4.690;2022-11-20T15:40:59;12.30;46.70
22360;DHT22;11347;52.030;4.690;2022-11-20T15:43:24;12.30;46.80
22360;DHT22;11347;52.030;4.690;2022-11-20T15:45:51;12.30;46.80
22360;DHT22;11347;52.030;4.690;2022-11-20T15:48:36;12.30;46.90
22360;DHT22;11347;52.030;4.690;2022-11-20T15:53:40;12.30;46.90
22360;DHT22;11347;52.030;4.690;2022-11-20T15:56:11;12.30;46.90
22360;DHT22;11347;52.030;4.690;2022-11-20T15:58:38;12.40;47.20
22360;DHT22;11347;52.030;4.690;2022-11-20T16:01:04;12.40;47.30
22360;DHT22;11347;52.030;4.690;2022-11-20T16:03:29;12.40;47.30
22360;DHT22;11347;52.030;4.690;2022-11-20T16:05:55;12.40;47.30
22360;DHT22;11347;52.030;4.690;2022-11-20T16:08:21;12.40;47.50
22360;DHT22;11347;52.030;4.690;2022-11-20T16:10:46;12.40;47.50
22360;DHT22;11347;52.030;4.690;2022-11-20T16:13:14;12.40;47.50
22360;DHT22;11347;52.030;4.690;2022-11-20T16:16:02;12.40;47.50
22360;DHT22;11347;52.030;4.690;2022-11-20T16:18:31;12.40;47.60
22360;DHT22;11347;52.030;4.690;2022-11-20T16:20:57;12.40;47.60
22360;DHT22;11347;52.030;4.690;2022-11-20T16:23:23;12.40;47.60
22360;DHT22;11347;52.030;4.690;2022-11-20T16:25:49;12.40;47.70
22360;DHT22;11347;52.030;4.690;2022-11-20T16:28:15;12.40;47.80
22360;DHT22;11347;52.030;4.690;2022-11-20T16:30:40;12.40;47.80
22360;DHT22;11347;52.030;4.690;2022-11-20T16:33:11;12.50;48.00
22360;DHT22;11347;52.030;4.690;2022-11-20T16:35:39;12.40;47.80
22360;DHT22;11347;52.030;4.690;2022-11-20T16:38:05;12.50;47.90
22360;DHT22;11347;52.030;4.690;2022-11-20T16:40:30;12.50;48.00
22360;DHT22;11347;52.030;4.690;2022-11-20T16:42:56;12.50;48.00
22360;DHT22;11347;52.030;4.690;2022-11-20T16:45:22;12.50;48.10
22360;DHT22;11347;52.030;4.690;2022-11-20T16:47:48;12.40;48.00
22360;DHT22;11347;52.030;4.690;2022-11-20T16:50:14;12.50;48.20
22360;DHT22;11347;52.030;4.690;2022-11-20T16:52:39;12.50;48.20
22360;DHT22;11347;52.030;4.690;2022-11-20T16:55:05;12.50;48.20
22360;DHT22;11347;52.030;4.690;2022-11-20T16:57:31;12.50;48.30
22360;DHT22;11347;52.030;4.690;2022-11-20T16:59:58;12.50;48.30
22360;DHT22;11347;52.030;4.690;2022-11-20T17:02:24;12.50;48.30
22360;DHT22;11347;52.030;4.690;2022-11-20T17:04:50;12.50;48.40
22360;DHT22;11347;52.030;4.690;2022-11-20T17:07:16;12.50;48.40
22360;DHT22;11347;52.030;4.690;2022-11-20T17:09:41;12.50;48.40
22360;DHT22;11347;52.030;4.690;2022-11-20T17:12:07;12.60;48.60
22360;DHT22;11347;52.030;4.690;2022-11-20T17:14:33;12.50;48.50
22360;DHT22;11347;52.030;4.690;2022-11-20T17:16:58;12.60;48.60
22360;DHT22;11347;52.030;4.690;2022-11-20T17:19:24;12.50;48.60